Time;durP1;ratioP1;P1;durP2;ratioP2;P2;SDS_P1;SDS_P2;PMS_P1;PMS_P2;Temp;Humidity;BMP_temperature;BMP_pressure;BME280_temperature;BME280_humidity;BME280_pressure;Samples;Min_cycle;Max_cycle;Signal;HPM_P1;HPM_P2
2022/10/16 00:00:32;;;;;;;11.70;5.50;;;;;;;12.30;100.00;100719.66;5064487;28;20039;-84
2022/10/16 00:02:58;;;;;;;13.23;5.53;;;;;;;12.18;100.00;100696.03;5066861;28;20362;-84
2022/10/16 00:05:23;;;;;;;17.10;5.70;;;;;;;12.30;100.00;100713.31;5024744;28;20098;-84
2022/10/16 00:07:48;;;;;;;13.52;5.60;;;;;;;12.36;100.00;100714.63;5028047;28;20033;-84
2022/10/16 00:10:14;;;;;;;11.15;5.53;;;;;;;12.37;100.00;100711.75;5026761;28;20079;-84
2022/10/16 00:12:39;;;;;;;10.65;5.35;;;;;;;12.36;100.00;100709.13;5026987;28;20567;-84
2022/10/16 00:15:05;;;;;;;10.10;5.90;;;;;;;12.37;100.00;100710.88;5042577;28;20124;-83
2022/10/16 00:17:31;;;;;;;10.70;5.03;;;;;;;12.39;100.00;100708.88;5059394;28;20127;-83
2022/10/16 00:19:57;;;;;;;10.68;5.40;;;;;;;12.26;100.00;100701.72;5043203;28;20037;-84
2022/10/16 00:22:23;;;;;;;16.05;5.40;;;;;;;12.26;100.00;100712.69;5039261;28;20036;-84
2022/10/16 00:24:48;;;;;;;11.98;5.10;;;;;;;12.27;100.00;100724.56;5052813;28;20037;-84
2022/10/16 00:27:14;;;;;;;11.38;5.05;;;;;;;12.23;100.00;100720.34;5009575;28;20049;-83
2022/10/16 00:29:39;;;;;;;10.20;4.97;;;;;;;12.10;100.00;100704.97;5064039;28;20049;-83
2022/10/16 00:32:05;;;;;;;9.27;4.93;;;;;;;12.22;100.00;100716.72;5023514;28;20136;-83
2022/10/16 00:34:30;;;;;;;7.72;4.78;;;;;;;12.21;100.00;100714.13;5023505;28;20067;-84
2022/10/16 00:36:56;;;;;;;11.75;5.07;;;;;;;12.09;100.00;100714.19;5057939;28;20029;-84
2022/10/16 00:39:22;;;;;;;10.25;5.32;;;;;;;12.11;100.00;100705.81;5027884;28;20507;-84
2022/10/16 00:41:47;;;;;;;13.68;5.03;;;;;;;12.04;100.00;100711.00;5023971;28;20051;-84
2022/10/16 00:44:43;;;;;;;10.30;5.05;;;;;;;12.02;100.00;100714.84;5043965;28;20047;-85
2022/10/16 00:47:12;;;;;;;6.03;4.75;;;;;;;12.03;100.00;100702.88;5042359;28;20029;-83
2022/10/16 00:49:38;;;;;;;11.23;4.97;;;;;;;12.03;100.00;100713.88;5042102;28;20036;-84
2022/10/16 00:52:05;;;;;;;6.75;5.05;;;;;;;11.99;100.00;100720.63;5043173;28;20036;-83
2022/10/16 00:54:32;;;;;;;8.43;4.25;;;;;;;11.93;100.00;100720.16;5039766;28;20107;-83
2022/10/16 00:57:01;;;;;;;12.82;5.10;;;;;;;11.98;100.00;100727.13;5025341;28;20033;-83
2022/10/16 00:59:36;;;;;;;13.35;4.90;;;;;;;11.99;100.00;100728.88;5059005;28;20486;-83
2022/10/16 01:02:04;;;;;;;10.50;4.78;;;;;;;12.00;100.00;100727.84;5039004;28;20025;-83
2022/10/16 01:04:34;;;;;;;7.03;4.68;;;;;;;12.00;100.00;100720.47;5037489;28;20034;-82
2022/10/16 01:07:16;;;;;;;9.27;4.75;;;;;;;11.98;100.00;100722.50;5056647;28;20118;-83
2022/10/16 01:09:50;;;;;;;7.97;4.22;;;;;;;11.94;100.00;100723.78;5058697;28;20062;-82
2022/10/16 01:12:29;;;;;;;6.95;3.92;;;;;;;12.00;100.00;100717.72;5053054;28;20128;-83
2022/10/16 01:15:29;;;;;;;10.10;4.30;;;;;;;12.01;100.00;100710.41;5046788;28;20095;-83
2022/10/16 01:18:13;;;;;;;6.60;3.97;;;;;;;12.05;100.00;100706.34;5036410;28;20366;-83
2022/10/16 01:20:49;;;;;;;7.55;3.97;;;;;;;12.01;100.00;100703.03;5040745;28;20033;-83
2022/10/16 01:23:21;;;;;;;8.80;3.92;;;;;;;11.98;100.00;100707.91;5069081;28;20500;-83
2022/10/16 01:26:24;;;;;;;7.68;3.78;;;;;;;11.92;100.00;100709.31;5061771;28;20028;-83
2022/10/16 01:28:56;;;;;;;4.15;3.72;;;;;;;11.90;100.00;100709.44;5076462;28;20072;-83
2022/10/16 01:31:27;;;;;;;7.40;3.75;;;;;;;11.87;100.00;100701.47;5059639;28;20033;-83
2022/10/16 01:34:02;;;;;;;8.57;4.00;;;;;;;11.83;100.00;100701.88;5031478;28;20061;-83
2022/10/16 01:36:38;;;;;;;6.95;3.95;;;;;;;11.76;100.00;100694.16;5057884;28;20029;-83
2022/10/16 01:39:08;;;;;;;5.32;3.88;;;;;;;11.81;100.00;100709.38;5065453;28;20040;-83
2022/10/16 01:41:39;;;;;;;4.53;3.47;;;;;;;11.78;100.00;100710.47;5041368;28;20035;-83
2022/10/16 01:44:10;;;;;;;8.88;3.58;;;;;;;11.69;100.00;100700.31;5039907;28;20443;-83
2022/10/16 01:46:39;;;;;;;17.13;4.00;;;;;;;11.74;100.00;100712.63;5070827;28;20099;-83
2022/10/16 01:49:07;;;;;;;6.03;3.40;;;;;;;11.80;100.00;100724.06;5058332;28;20032;-82
2022/10/16 01:51:35;;;;;;;6.95;3.45;;;;;;;11.76;100.00;100728.97;5065601;28;20033;-83
2022/10/16 01:54:02;;;;;;;7.78;3.88;;;;;;;11.71;100.00;100720.25;5057966;28;20044;-83
2022/10/16 01:56:29;;;;;;;7.80;3.97;;;;;;;11.69;100.00;100722.25;5056727;28;20052;-83
2022/10/16 01:59:03;;;;;;;6.10;3.50;;;;;;;11.70;100.00;100721.25;5043906;28;20035;-83
2022/10/16 02:01:32;;;;;;;6.93;3.65;;;;;;;11.54;100.00;100699.75;5058295;28;20017;-83
2022/10/16 02:04:04;;;;;;;6.72;3.58;;;;;;;11.72;100.00;100732.94;5037388;28;20044;-82
2022/10/16 02:06:30;;;;;;;8.60;3.85;;;;;;;11.71;100.00;100731.22;5050417;28;20043;-83
2022/10/16 02:08:55;;;;;;;5.88;3.28;;;;;;;11.65;100.00;100731.75;5043126;28;20040;-83
2022/10/16 02:11:21;;;;;;;9.75;3.92;;;;;;;11.61;100.00;100738.47;5041219;28;20056;-83
2022/10/16 02:14:01;;;;;;;8.90;3.80;;;;;;;11.65;100.00;100726.25;5024121;28;20057;-83
2022/10/16 02:16:35;;;;;;;4.03;3.20;;;;;;;11.62;100.00;100732.00;5056348;28;20428;-83
2022/10/16 02:19:00;;;;;;;8.27;3.58;;;;;;;11.66;100.00;100730.72;5057246;28;20099;-82
2022/10/16 02:21:32;;;;;;;7.38;3.65;;;;;;;11.63;100.00;100734.63;5041973;28;20029;-83
2022/10/16 02:24:17;;;;;;;5.97;3.60;;;;;;;11.65;100.00;100731.75;5058071;28;20025;-83
2022/10/16 02:27:16;;;;;;;30.08;6.20;;;;;;;11.57;100.00;100721.44;5037718;28;20040;-84
2022/10/16 02:29:49;;;;;;;6.00;3.22;;;;;;;11.57;100.00;100725.03;5034972;28;20133;-84
2022/10/16 02:32:19;;;;;;;9.90;3.53;;;;;;;11.51;100.00;100714.63;5041092;28;20044;-83
2022/10/16 02:34:48;;;;;;;5.28;3.20;;;;;;;11.50;100.00;100717.47;5057957;28;20044;-84
2022/10/16 02:37:14;;;;;;;4.40;3.17;;;;;;;11.55;100.00;100726.19;5048381;28;20033;-84
2022/10/16 02:39:43;;;;;;;9.93;2.97;;;;;;;11.59;100.00;100733.13;5040199;28;20057;-84
2022/10/16 02:42:13;;;;;;;7.78;3.28;;;;;;;11.54;100.00;100728.06;5042484;28;20029;-84
2022/10/16 02:44:39;;;;;;;3.45;3.15;;;;;;;11.48;100.00;100723.09;5042597;28;20096;-84
2022/10/16 02:47:06;;;;;;;4.28;2.75;;;;;;;11.52;100.00;100731.94;5032222;28;20068;-84
2022/10/16 02:49:32;;;;;;;8.73;2.70;;;;;;;11.38;100.00;100727.63;5063544;28;20041;-84
2022/10/16 02:51:57;;;;;;;3.00;2.70;;;;;;;11.49;100.00;100734.94;5063383;28;20031;-83
2022/10/16 02:54:23;;;;;;;3.17;2.80;;;;;;;11.49;100.00;100722.06;5031605;28;20416;-82
2022/10/16 02:56:49;;;;;;;3.78;2.97;;;;;;;11.51;100.00;100730.16;5047428;28;20041;-83
2022/10/16 02:59:15;;;;;;;10.45;3.15;;;;;;;11.50;100.00;100725.72;5056581;28;20045;-83
2022/10/16 03:01:40;;;;;;;8.07;3.42;;;;;;;11.49;100.00;100719.34;5052999;28;20507;-83
2022/10/16 03:04:05;;;;;;;4.35;3.47;;;;;;;11.48;100.00;100711.25;5055031;28;20043;-83
2022/10/16 03:06:31;;;;;;;6.05;2.85;;;;;;;11.43;100.00;100708.91;5029970;28;20056;-83
2022/10/16 03:08:56;;;;;;;8.45;2.90;;;;;;;11.48;100.00;100720.34;5044630;28;20049;-83
2022/10/16 03:11:22;;;;;;;8.82;2.35;;;;;;;11.34;100.00;100706.94;5047688;28;20103;-84
2022/10/16 03:13:47;;;;;;;5.03;2.90;;;;;;;11.44;100.00;100723.47;5050362;28;20033;-84
2022/10/16 03:16:13;;;;;;;4.78;2.97;;;;;;;11.41;100.00;100727.34;5040870;28;20049;-83
2022/10/16 03:18:38;;;;;;;7.93;2.88;;;;;;;11.37;100.00;100723.13;5043236;28;20116;-84
2022/10/16 03:21:04;;;;;;;8.52;3.10;;;;;;;11.40;100.00;100733.84;5031182;28;20045;-84
2022/10/16 03:23:29;;;;;;;5.55;2.38;;;;;;;11.36;100.00;100735.97;5040283;28;20456;-84
2022/10/16 03:25:55;;;;;;;8.82;2.78;;;;;;;11.46;100.00;100755.28;5044638;28;20039;-84
2022/10/16 03:28:20;;;;;;;9.70;3.08;;;;;;;11.43;100.00;100743.66;5043727;28;20033;-84
2022/10/16 03:30:46;;;;;;;6.63;3.03;;;;;;;11.49;100.00;100748.63;5040108;28;20492;-84
2022/10/16 03:33:12;;;;;;;5.78;2.72;;;;;;;11.35;100.00;100731.50;5026093;28;20187;-84
2022/10/16 03:35:37;;;;;;;3.30;2.53;;;;;;;11.54;100.00;100758.22;5040691;28;20041;-83
2022/10/16 03:38:03;;;;;;;4.85;2.70;;;;;;;11.52;100.00;100762.09;5044225;28;20029;-84
2022/10/16 03:40:28;;;;;;;5.57;3.05;;;;;;;11.50;100.00;100762.22;5044035;28;20400;-83
2022/10/16 03:42:57;;;;;;;5.00;2.80;;;;;;;11.56;100.00;100756.22;5044736;28;20072;-83
2022/10/16 03:45:23;;;;;;;7.43;2.80;;;;;;;11.58;100.00;100753.34;5033361;28;20033;-83
2022/10/16 03:47:48;;;;;;;4.82;2.55;;;;;;;11.58;100.00;100756.09;5014996;28;20033;-84
2022/10/16 03:50:14;;;;;;;4.43;2.75;;;;;;;11.63;100.00;100755.69;5042959;28;20068;-83
2022/10/16 03:52:40;;;;;;;3.95;2.60;;;;;;;11.57;100.00;100755.19;5026740;28;20420;-83
2022/10/16 03:55:06;;;;;;;2.55;2.35;;;;;;;11.64;100.00;100765.66;5044183;28;20040;-84
2022/10/16 03:57:31;;;;;;;3.33;2.50;;;;;;;11.62;100.00;100765.78;5058648;28;20027;-83
2022/10/16 03:59:56;;;;;;;7.15;2.75;;;;;;;11.64;100.00;100776.63;5028320;28;20357;-83
2022/10/16 04:02:22;;;;;;;9.57;3.55;;;;;;;11.69;100.00;100772.50;5027566;28;20029;-84
2022/10/16 04:04:47;;;;;;;5.63;2.90;;;;;;;11.71;100.00;100775.13;5026956;28;20026;-83
2022/10/16 04:07:13;;;;;;;3.40;2.40;;;;;;;11.71;100.00;100777.84;5010355;28;20037;-83
2022/10/16 04:09:38;;;;;;;4.70;2.40;;;;;;;11.68;100.00;100772.63;5028869;28;20048;-85
2022/10/16 04:12:04;;;;;;;5.47;2.22;;;;;;;11.69;100.00;100771.59;5011429;28;20022;-85
2022/10/16 04:14:29;;;;;;;5.22;2.00;;;;;;;11.76;100.00;100773.72;5029356;28;20063;-85
2022/10/16 04:16:55;;;;;;;7.25;2.38;;;;;;;11.81;100.00;100780.69;5028507;28;20036;-85
2022/10/16 04:19:20;;;;;;;3.35;2.40;;;;;;;11.79;100.00;100783.56;5027036;28;20508;-84
2022/10/16 04:21:46;;;;;;;6.85;2.53;;;;;;;11.74;100.00;100781.19;5027373;28;20064;-84
2022/10/16 04:24:11;;;;;;;2.45;2.08;;;;;;;11.79;100.00;100783.56;5061524;28;20485;-83
2022/10/16 04:26:38;;;;;;;2.38;1.85;;;;;;;11.85;100.00;100782.16;5043724;28;20029;-84
2022/10/16 04:29:04;;;;;;;4.68;2.00;;;;;;;11.84;100.00;100788.63;5040817;28;20067;-83
2022/10/16 04:31:29;;;;;;;3.30;2.00;;;;;;;11.84;100.00;100781.28;5043017;28;20084;-83
2022/10/16 04:33:54;;;;;;;8.95;2.10;;;;;;;11.88;100.00;100798.34;5044518;28;20167;-83
2022/10/16 04:36:20;;;;;;;6.32;2.25;;;;;;;11.97;100.00;100785.72;5042210;28;20159;-83
2022/10/16 04:38:45;;;;;;;4.68;1.80;;;;;;;11.99;100.00;100795.59;5026131;28;20029;-83
2022/10/16 04:41:11;;;;;;;3.75;2.00;;;;;;;11.97;100.00;100800.34;5026462;28;20115;-83
2022/10/16 04:43:36;;;;;;;7.50;2.15;;;;;;;11.98;100.00;100798.47;5027202;28;20059;-82
2022/10/16 04:46:04;;;;;;;4.90;2.08;;;;;;;11.97;100.00;100793.97;5040417;28;20061;-84
2022/10/16 04:48:30;;;;;;;4.25;1.92;;;;;;;12.00;100.00;100790.97;5034870;28;20114;-83
2022/10/16 04:50:55;;;;;;;6.30;1.95;;;;;;;11.98;100.00;100798.47;5045100;28;20029;-83
2022/10/16 04:53:21;;;;;;;12.00;2.35;;;;;;;11.95;100.00;100813.31;5026775;28;20041;-84
2022/10/16 04:55:48;;;;;;;5.13;1.73;;;;;;;11.93;100.00;100812.56;5043912;28;20044;-84
2022/10/16 04:58:13;;;;;;;3.88;2.00;;;;;;;11.91;100.00;100809.06;5025642;28;20029;-83
2022/10/16 05:00:39;;;;;;;2.90;1.80;;;;;;;11.97;100.00;100814.06;5041154;28;20094;-84
2022/10/16 05:03:07;;;;;;;3.28;2.00;;;;;;;11.93;100.00;100821.66;5059532;28;20469;-84
2022/10/16 05:05:33;;;;;;;2.63;1.63;;;;;;;11.93;100.00;100809.84;5041650;28;20040;-84
2022/10/16 05:07:58;;;;;;;6.30;1.98;;;;;;;11.97;100.00;100829.63;5025181;28;20033;-84
2022/10/16 05:10:24;;;;;;;3.50;2.03;;;;;;;11.93;100.00;100818.06;5058847;28;20043;-84
2022/10/16 05:12:49;;;;;;;7.63;2.10;;;;;;;11.97;100.00;100826.91;5042730;28;20028;-84
2022/10/16 05:15:15;;;;;;;5.95;2.38;;;;;;;11.94;100.00;100814.31;5042733;28;20049;-85
2022/10/16 05:17:40;;;;;;;5.82;2.65;;;;;;;11.95;100.00;100830.66;5039499;28;20053;-84
2022/10/16 05:20:06;;;;;;;3.70;2.13;;;;;;;11.93;100.00;100829.91;5049781;28;20041;-83
2022/10/16 05:22:32;;;;;;;4.43;2.50;;;;;;;11.95;100.00;100833.41;5009473;28;20392;-84
2022/10/16 05:24:57;;;;;;;4.32;1.88;;;;;;;11.93;100.00;100824.41;5025414;28;20060;-83
2022/10/16 05:27:22;;;;;;;6.63;2.17;;;;;;;11.87;100.00;100827.66;5040679;28;20460;-83
2022/10/16 05:29:49;;;;;;;5.50;2.35;;;;;;;11.91;100.00;100839.25;5052706;28;20477;-83
2022/10/16 05:32:18;;;;;;;5.15;2.55;;;;;;;11.85;100.00;100837.88;5057488;28;20036;-83
2022/10/16 05:34:44;;;;;;;3.33;2.20;;;;;;;11.85;100.00;100843.38;5058783;28;20400;-83
2022/10/16 05:37:11;;;;;;;6.53;2.30;;;;;;;11.88;100.00;100853.22;5038809;28;20041;-83
2022/10/16 05:39:37;;;;;;;8.40;2.47;;;;;;;11.89;100.00;100860.47;5060798;28;20480;-83
2022/10/16 05:42:03;;;;;;;7.10;2.50;;;;;;;11.83;100.00;100861.84;5039403;28;20040;-83
2022/10/16 05:44:29;;;;;;;5.80;2.40;;;;;;;11.75;100.00;100856.13;5041661;28;20047;-83
2022/10/16 05:46:54;;;;;;;6.18;2.38;;;;;;;11.82;100.00;100875.69;5025313;28;20033;-83
2022/10/16 05:49:20;;;;;;;7.63;2.35;;;;;;;11.84;100.00;100877.31;5015957;28;20033;-84
2022/10/16 05:51:46;;;;;;;13.30;2.50;;;;;;;11.81;100.00;100872.06;5041272;28;20037;-84
2022/10/16 05:54:11;;;;;;;6.03;2.95;;;;;;;11.71;100.00;100868.38;5025103;28;20076;-84
2022/10/16 05:56:36;;;;;;;4.80;2.42;;;;;;;11.82;100.00;100881.16;5057347;28;20039;-83
2022/10/16 05:59:04;;;;;;;5.18;2.50;;;;;;;11.88;100.00;100883.41;5027294;28;20078;-84
2022/10/16 06:01:30;;;;;;;3.50;2.58;;;;;;;11.84;100.00;100896.50;5068493;28;20051;-84
2022/10/16 06:03:56;;;;;;;5.07;2.90;;;;;;;11.82;100.00;100901.22;5047924;28;20411;-84
2022/10/16 06:06:28;;;;;;;3.70;2.00;;;;;;;11.81;100.00;100906.88;5058054;28;20032;-84
2022/10/16 06:08:54;;;;;;;2.55;2.35;;;;;;;11.77;100.00;100890.66;5052554;28;20037;-84
2022/10/16 06:11:23;;;;;;;9.48;2.40;;;;;;;11.78;100.00;100908.84;5031406;28;20115;-84
2022/10/16 06:13:57;;;;;;;8.48;2.55;;;;;;;11.80;100.00;100910.59;5041567;28;20392;-84
2022/10/16 06:16:24;;;;;;;6.57;2.45;;;;;;;11.81;100.00;100928.81;5058671;28;20399;-84
2022/10/16 06:18:55;;;;;;;10.88;3.08;;;;;;;11.92;100.00;100926.06;5023586;28;20106;-84
2022/10/16 06:21:24;;;;;;;13.15;2.50;;;;;;;11.86;100.00;100926.56;5042609;28;20045;-85
2022/10/16 06:23:50;;;;;;;4.72;2.40;;;;;;;11.83;100.00;100930.41;5026046;28;20087;-84
2022/10/16 06:26:18;;;;;;;3.85;2.90;;;;;;;11.89;100.00;100935.41;5041384;28;20049;-84
2022/10/16 06:28:43;;;;;;;4.22;2.20;;;;;;;11.90;100.00;100944.50;5070579;28;20532;-83
2022/10/16 06:31:11;;;;;;;8.23;2.67;;;;;;;11.87;100.00;100939.25;5042276;28;20021;-84
2022/10/16 06:33:38;;;;;;;4.57;2.60;;;;;;;11.82;100.00;100939.63;5042998;28;20044;-84
2022/10/16 06:36:14;;;;;;;4.20;2.17;;;;;;;11.87;100.00;100942.00;5061238;28;20393;-83
2022/10/16 06:38:39;;;;;;;8.95;2.20;;;;;;;11.89;100.00;100942.78;5069893;28;20051;-84
2022/10/16 06:41:06;;;;;;;7.32;2.75;;;;;;;11.91;100.00;100940.75;5032344;28;20029;-84
2022/10/16 06:43:35;;;;;;;5.50;2.67;;;;;;;11.95;100.00;100958.72;5060691;28;20033;-84
2022/10/16 06:46:01;;;;;;;7.63;2.40;;;;;;;11.80;100.00;100946.28;5040275;28;20029;-83
2022/10/16 06:48:28;;;;;;;9.43;2.33;;;;;;;11.91;100.00;100965.47;5031239;28;20033;-83
2022/10/16 06:51:04;;;;;;;3.00;2.47;;;;;;;11.90;100.00;100972.81;5021728;28;20517;-81
2022/10/16 06:53:32;;;;;;;8.48;2.33;;;;;;;11.90;100.00;100967.34;5049565;28;20090;-83
2022/10/16 06:55:58;;;;;;;5.45;2.63;;;;;;;11.92;100.00;100965.38;5032237;28;20044;-84
2022/10/16 06:58:24;;;;;;;6.43;2.65;;;;;;;12.01;100.00;100971.09;5048909;28;20025;-82
2022/10/16 07:00:56;;;;;;;5.18;2.47;;;;;;;12.05;100.00;100972.56;5025729;28;20025;-83
2022/10/16 07:03:21;;;;;;;10.05;2.90;;;;;;;12.19;100.00;100990.63;5043619;28;20037;-85
2022/10/16 07:05:47;;;;;;;4.22;2.78;;;;;;;12.29;100.00;100981.47;5007665;28;20034;-85
2022/10/16 07:08:12;;;;;;;8.07;3.22;;;;;;;12.38;100.00;100990.84;5030078;28;20044;-84
2022/10/16 07:10:38;;;;;;;4.85;2.55;;;;;;;12.56;100.00;100982.91;5038126;28;20045;-84
2022/10/16 07:13:03;;;;;;;6.35;2.67;;;;;;;12.62;100.00;100990.59;5038739;28;20029;-84
2022/10/16 07:15:29;;;;;;;3.30;2.22;;;;;;;12.89;100.00;101008.47;5025316;28;20029;-84
2022/10/16 07:17:54;;;;;;;13.80;2.33;;;;;;;12.90;100.00;101007.44;5038829;28;20033;-84
2022/10/16 07:20:20;;;;;;;6.38;2.53;;;;;;;13.11;100.00;101028.59;5019626;28;20064;-83
2022/10/16 07:22:46;;;;;;;4.63;2.00;;;;;;;13.19;100.00;101029.66;5025312;28;20037;-84
2022/10/16 07:25:12;;;;;;;3.67;2.05;;;;;;;13.31;100.00;101033.19;5041937;28;20374;-85
2022/10/16 07:27:37;;;;;;;9.02;2.42;;;;;;;13.34;100.00;101032.97;5023269;28;20036;-84
2022/10/16 07:30:04;;;;;;;7.55;2.45;;;;;;;13.34;100.00;101035.72;5057195;28;20033;-84
2022/10/16 07:32:30;;;;;;;6.88;2.88;;;;;;;13.66;100.00;101037.50;5058009;28;20032;-84
2022/10/16 07:34:56;;;;;;;4.88;2.10;;;;;;;13.57;100.00;101039.16;5062664;28;20029;-85
2022/10/16 07:37:23;;;;;;;12.90;3.22;;;;;;;13.65;100.00;101044.00;5048502;28;20095;-84
2022/10/16 07:39:48;;;;;;;6.72;2.25;;;;;;;13.78;100.00;101050.13;5062250;28;20127;-84
2022/10/16 07:42:15;;;;;;;8.68;1.95;;;;;;;13.90;100.00;101053.66;5041910;28;20460;-83
2022/10/16 07:44:41;;;;;;;2.85;1.90;;;;;;;13.77;100.00;101061.28;5058713;28;20092;-83
2022/10/16 07:47:07;;;;;;;6.75;2.00;;;;;;;14.07;100.00;101062.28;5052884;28;20056;-81
2022/10/16 07:49:32;;;;;;;7.10;2.63;;;;;;;13.96;100.00;101068.78;5069353;28;20534;-82
2022/10/16 07:51:58;;;;;;;7.40;2.58;;;;;;;14.14;100.00;101078.13;5050644;28;20044;-82
2022/10/16 07:54:23;;;;;;;7.68;1.90;;;;;;;14.32;100.00;101080.22;5057147;28;20044;-82
2022/10/16 07:56:48;;;;;;;5.88;2.35;;;;;;;14.27;100.00;101085.28;5058296;28;20036;-83
2022/10/16 07:59:14;;;;;;;9.13;1.92;;;;;;;14.16;100.00;101089.00;5002499;28;20128;-82
2022/10/16 08:01:41;;;;;;;8.73;2.33;;;;;;;14.67;100.00;101090.75;5059290;28;20549;-83
2022/10/16 08:04:08;;;;;;;5.55;2.35;;;;;;;14.44;100.00;101101.09;5052384;28;20054;-82
2022/10/16 08:06:38;;;;;;;4.95;2.13;;;;;;;14.72;100.00;101103.25;5061234;28;20073;-82
2022/10/16 08:09:04;;;;;;;6.25;2.45;;;;;;;14.59;100.00;101111.72;5072390;28;20029;-82
2022/10/16 08:11:30;;;;;;;6.75;1.88;;;;;;;14.89;100.00;101117.19;5060218;28;20434;-82
2022/10/16 08:13:55;;;;;;;6.25;2.25;;;;;;;14.92;100.00;101116.06;5026216;28;20067;-81
2022/10/16 08:16:21;;;;;;;5.68;2.08;;;;;;;14.83;100.00;101120.53;5056598;28;20123;-82
2022/10/16 08:18:47;;;;;;;4.70;2.45;;;;;;;15.27;100.00;101122.03;5042472;28;20049;-84
2022/10/16 08:21:19;;;;;;;4.93;2.28;;;;;;;15.09;100.00;101122.72;5040926;28;20037;-83
2022/10/16 08:23:44;;;;;;;9.70;2.20;;;;;;;15.24;100.00;101135.06;5042614;28;20033;-83
2022/10/16 08:26:11;;;;;;;3.35;1.67;;;;;;;15.28;100.00;101126.50;5044843;28;20037;-86
2022/10/16 08:28:36;;;;;;;2.92;1.48;;;;;;;15.26;100.00;101134.91;5051748;28;20040;-83
2022/10/16 08:31:21;;;;;;;9.20;1.60;;;;;;;15.48;100.00;101136.53;5070858;28;20763;-84
2022/10/16 08:33:47;;;;;;;6.63;1.30;;;;;;;15.23;100.00;101149.91;5060561;28;20029;-83
2022/10/16 08:36:13;;;;;;;6.60;1.50;;;;;;;15.86;100.00;101144.94;5057950;28;20028;-83
2022/10/16 08:38:39;;;;;;;4.03;1.63;;;;;;;15.95;100.00;101147.66;5047126;28;20440;-81
2022/10/16 08:41:30;;;;;;;2.67;1.30;;;;;;;15.91;100.00;101148.97;5056370;28;20035;-83
2022/10/16 08:44:07;;;;;;;5.93;1.33;;;;;;;16.10;100.00;101156.34;5060838;28;20064;-81
2022/10/16 08:46:46;;;;;;;7.55;1.65;;;;;;;16.26;100.00;101157.59;5057504;28;20056;-83
2022/10/16 08:49:15;;;;;;;3.58;1.13;;;;;;;16.06;100.00;101165.06;5057313;28;20045;-83
2022/10/16 08:51:42;;;;;;;7.90;1.40;;;;;;;16.30;100.00;101170.09;5035580;28;20036;-84
2022/10/16 08:54:34;;;;;;;6.28;1.27;;;;;;;16.56;100.00;101167.50;5029867;28;20040;-83
2022/10/16 08:57:14;;;;;;;5.30;1.30;;;;;;;16.81;100.00;101165.91;5048191;28;20041;-83
2022/10/16 08:59:39;;;;;;;6.45;1.10;;;;;;;17.00;100.00;101172.38;5065052;28;20037;-84
2022/10/16 09:02:30;;;;;;;6.30;1.27;;;;;;;17.01;100.00;101176.88;5073058;28;20039;-84
2022/10/16 09:05:40;;;;;;;10.23;1.50;;;;;;;16.79;100.00;101187.31;5042991;28;20037;-83
2022/10/16 09:08:05;;;;;;;6.68;1.13;;;;;;;17.00;100.00;101191.72;5025377;28;20048;-83
2022/10/16 09:10:46;;;;;;;5.63;1.20;;;;;;;17.06;100.00;101186.44;5058524;28;20122;-83
2022/10/16 09:13:23;;;;;;;5.22;1.40;;;;;;;16.96;100.00;101184.78;5063631;28;20039;-83
2022/10/16 09:16:07;;;;;;;10.80;1.33;;;;;;;17.45;100.00;101200.00;5061722;28;20524;-83
2022/10/16 09:18:43;;;;;;;3.72;1.10;;;;;;;17.49;100.00;101194.16;5051181;28;20866;-82
2022/10/16 09:21:38;;;;;;;4.68;1.17;;;;;;;17.51;100.00;101195.75;5058888;28;20055;-83
2022/10/16 09:24:19;;;;;;;7.80;1.40;;;;;;;17.13;100.00;101197.75;5061645;28;20126;-83
2022/10/16 09:26:45;;;;;;;10.80;1.05;;;;;;;17.42;100.00;101199.44;5075229;28;20037;-82
2022/10/16 09:29:12;;;;;;;7.18;1.50;;;;;;;17.96;100.00;101208.59;5074262;28;20056;-82
2022/10/16 09:31:38;;;;;;;5.55;1.00;;;;;;;18.00;100.00;101211.91;5051869;28;20025;-83
2022/10/16 09:34:06;;;;;;;4.00;1.00;;;;;;;18.41;100.00;101214.97;5039842;28;20033;-80
2022/10/16 09:36:46;;;;;;;10.38;1.10;;;;;;;18.38;100.00;101209.75;5037328;28;20028;-85
2022/10/16 09:39:12;;;;;;;5.63;1.33;;;;;;;18.56;100.00;101209.66;5036573;28;20037;-85
2022/10/16 09:41:41;;;;;;;4.20;1.00;;;;;;;18.74;100.00;101215.13;5009625;28;20039;-85
2022/10/16 09:44:28;;;;;;;6.15;1.20;;;;;;;18.17;100.00;101210.16;5041668;28;20029;-85
2022/10/16 09:47:04;;;;;;;5.43;1.10;;;;;;;18.16;100.00;101213.94;5048781;28;20037;-84
2022/10/16 09:49:30;;;;;;;7.43;1.00;;;;;;;18.10;100.00;101201.63;5039998;28;20033;-85
2022/10/16 09:52:26;;;;;;;5.95;1.13;;;;;;;18.38;100.00;101212.50;5026532;28;20033;-85
2022/10/16 09:54:52;;;;;;;5.45;1.20;;;;;;;18.12;100.00;101212.53;5023703;28;20053;-84
2022/10/16 09:57:19;;;;;;;8.48;1.05;;;;;;;17.96;100.00;101204.97;5036721;28;20064;-84
2022/10/16 09:59:53;;;;;;;8.45;0.95;;;;;;;18.11;100.00;101211.66;5028230;28;20048;-85
2022/10/16 10:02:26;;;;;;;3.28;1.05;;;;;;;18.51;100.00;101217.63;5074582;28;20099;-85
2022/10/16 10:04:56;;;;;;;7.85;1.25;;;;;;;18.33;100.00;101207.50;5055424;28;20491;-84
2022/10/16 10:07:28;;;;;;;3.88;0.85;;;;;;;18.40;100.00;101218.78;5039912;28;20033;-83
2022/10/16 10:09:57;;;;;;;3.40;1.00;;;;;;;18.60;100.00;101213.00;5069641;28;20025;-85
2022/10/16 10:12:26;;;;;;;4.80;0.90;;;;;;;18.59;100.00;101223.22;5056679;28;20104;-84
2022/10/16 10:14:54;;;;;;;5.13;0.90;;;;;;;17.79;100.00;101215.00;5040856;28;20040;-84
2022/10/16 10:17:23;;;;;;;8.50;0.75;;;;;;;18.00;100.00;101223.88;5045353;28;20045;-84
2022/10/16 10:19:55;;;;;;;6.57;1.10;;;;;;;18.19;100.00;101231.13;5074614;28;20094;-85
2022/10/16 10:22:29;;;;;;;;;;;;;;;18.21;100.00;101227.31;5061045;28;20032;-83
2022/10/16 10:24:57;;;;;;;8.77;1.25;;;;;;;18.98;100.00;101224.66;5058566;28;19919;-84
2022/10/16 10:27:37;;;;;;;3.58;0.98;;;;;;;18.97;100.00;101234.88;5058611;28;20021;-84
2022/10/16 10:30:08;;;;;;;5.10;0.85;;;;;;;18.37;100.00;101231.06;5071010;28;20495;-84
2022/10/16 10:32:48;;;;;;;4.70;1.48;;;;;;;17.35;100.00;101234.31;5071076;28;20033;-84
2022/10/16 10:36:03;;;;;;;9.43;0.85;;;;;;;17.28;100.00;101239.59;5050595;28;20033;-86
2022/10/16 10:38:47;;;;;;;8.65;0.90;;;;;;;17.49;100.00;101250.38;5023941;28;20063;-84
2022/10/16 10:41:38;;;;;;;5.85;1.08;;;;;;;17.19;100.00;101243.31;5055753;28;20083;-86
2022/10/16 10:44:28;;;;;;;8.13;1.25;;;;;;;17.90;100.00;101244.41;5039309;28;20497;-85
2022/10/16 10:47:11;;;;;;;6.40;1.05;;;;;;;18.35;100.00;101248.91;5044754;28;20538;-85
2022/10/16 10:49:58;;;;;;;6.10;0.90;;;;;;;18.24;100.00;101255.59;5063019;28;20027;-85
2022/10/16 10:52:42;;;;;;;8.10;0.82;;;;;;;18.59;100.00;101253.72;5063016;28;20116;-84
2022/10/16 10:55:13;;;;;;;5.05;0.80;;;;;;;18.02;100.00;101254.22;5059137;28;20503;-84
2022/10/16 10:57:45;;;;;;;5.45;1.23;;;;;;;17.97;100.00;101251.91;5057658;28;20048;-84
2022/10/16 11:00:20;;;;;;;6.32;0.90;;;;;;;18.31;100.00;101250.25;5056525;28;20051;-85
2022/10/16 11:03:12;;;;;;;6.85;1.17;;;;;;;17.86;100.00;101252.13;5052741;28;20037;-85
2022/10/16 11:05:43;;;;;;;8.03;0.80;;;;;;;17.60;100.00;101254.81;5072061;28;20033;-85
2022/10/16 11:08:27;;;;;;;6.53;1.00;;;;;;;17.61;100.00;101253.78;5064145;28;20408;-85
2022/10/16 11:11:02;;;;;;;5.22;1.30;;;;;;;17.78;100.00;101258.47;5060421;28;20102;-84
2022/10/16 11:13:39;;;;;;;4.68;0.88;;;;;;;18.28;100.00;101265.31;5061551;28;20036;-84
2022/10/16 11:16:19;;;;;;;11.98;1.20;;;;;;;18.39;100.00;101255.84;5058855;28;20029;-85
2022/10/16 11:19:10;;;;;;;6.88;0.90;;;;;;;18.65;100.00;101260.53;5061310;28;20047;-84
2022/10/16 11:21:43;;;;;;;4.13;0.95;;;;;;;18.55;100.00;101258.72;5043969;28;20071;-85
2022/10/16 11:24:23;;;;;;;4.50;0.70;;;;;;;18.49;100.00;101255.75;5063052;28;20029;-84
2022/10/16 11:26:53;;;;;;;7.53;1.05;;;;;;;18.51;100.00;101259.22;5045635;28;20030;-84
2022/10/16 11:29:31;;;;;;;3.15;0.85;;;;;;;18.91;100.00;101263.31;5040068;28;20033;-84